sensor_id;sensor_type;location;lat;lon;timestamp;temperature;humidity
3466;DHT22;1747;48.884;9.160;2023-05-07T00:02:02;15.40;99.90
3466;DHT22;1747;48.884;9.160;2023-05-07T00:04:31;15.30;99.90
3466;DHT22;1747;48.884;9.160;2023-05-07T00:07:02;15.30;99.90
3466;DHT22;1747;48.884;9.160;2023-05-07T00:09:29;15.20;99.90
3466;DHT22;1747;48.884;9.160;2023-05-07T00:11:55;15.20;99.90
3466;DHT22;1747;48.884;9.160;2023-05-07T00:14:22;15.20;99.90
3466;DHT22;1747;48.884;9.160;2023-05-07T00:16:49;15.20;99.90
3466;DHT22;1747;48.884;9.160;2023-05-07T00:19:16;15.20;99.90
3466;DHT22;1747;48.884;9.160;2023-05-07T00:21:44;15.20;99.90
3466;DHT22;1747;48.884;9.160;2023-05-07T00:24:10;15.20;99.90
3466;DHT22;1747;48.884;9.160;2023-05-07T00:26:37;15.20;99.90
3466;DHT22;1747;48.884;9.160;2023-05-07T00:29:04;15.20;99.90
3466;DHT22;1747;48.884;9.160;2023-05-07T00:31:31;15.30;99.90
3466;DHT22;1747;48.884;9.160;2023-05-07T00:33:57;15.30;99.90
3466;DHT22;1747;48.884;9.160;2023-05-07T00:36:24;15.20;99.90
3466;DHT22;1747;48.884;9.160;2023-05-07T00:38:54;15.20;99.90
3466;DHT22;1747;48.884;9.160;2023-05-07T00:41:21;15.30;99.90
3466;DHT22;1747;48.884;9.160;2023-05-07T00:43:48;15.30;99.90
3466;DHT22;1747;48.884;9.160;2023-05-07T00:46:17;15.20;99.90
3466;DHT22;1747;48.884;9.160;2023-05-07T00:48:44;15.30;99.90
3466;DHT22;1747;48.884;9.160;2023-05-07T00:51:11;15.20;99.90
3466;DHT22;1747;48.884;9.160;2023-05-07T00:53:38;15.30;99.90
3466;DHT22;1747;48.884;9.160;2023-05-07T00:56:07;15.20;99.90
3466;DHT22;1747;48.884;9.160;2023-05-07T00:58:33;15.20;99.90
3466;DHT22;1747;48.884;9.160;2023-05-07T01:01:02;15.20;99.90
3466;DHT22;1747;48.884;9.160;2023-05-07T01:03:29;15.20;99.90
3466;DHT22;1747;48.884;9.160;2023-05-07T01:05:57;15.10;99.90
3466;DHT22;1747;48.884;9.160;2023-05-07T01:08:25;15.10;99.90
3466;DHT22;1747;48.884;9.160;2023-05-07T01:10:55;15.10;99.90
3466;DHT22;1747;48.884;9.160;2023-05-07T01:13:24;15.00;99.90
3466;DHT22;1747;48.884;9.160;2023-05-07T01:15:51;15.00;99.90
3466;DHT22;1747;48.884;9.160;2023-05-07T01:18:18;15.00;99.90
3466;DHT22;1747;48.884;9.160;2023-05-07T01:20:45;15.00;99.90
3466;DHT22;1747;48.884;9.160;2023-05-07T01:23:14;15.00;99.90
3466;DHT22;1747;48.884;9.160;2023-05-07T01:25:43;14.90;99.90
3466;DHT22;1747;48.884;9.160;2023-05-07T01:28:09;14.80;99.90
3466;DHT22;1747;48.884;9.160;2023-05-07T01:30:45;14.70;99.90
3466;DHT22;1747;48.884;9.160;2023-05-07T01:33:14;14.60;99.90
3466;DHT22;1747;48.884;9.160;2023-05-07T01:35:45;14.60;99.90
3466;DHT22;1747;48.884;9.160;2023-05-07T01:38:14;14.50;99.90
3466;DHT22;1747;48.884;9.160;2023-05-07T01:40:41;14.60;99.90
3466;DHT22;1747;48.884;9.160;2023-05-07T01:43:09;14.60;99.90
3466;DHT22;1747;48.884;9.160;2023-05-07T01:45:37;14.60;99.90
3466;DHT22;1747;48.884;9.160;2023-05-07T01:48:06;14.70;99.90
3466;DHT22;1747;48.884;9.160;2023-05-07T01:50:33;14.70;99.90
3466;DHT22;1747;48.884;9.160;2023-05-07T01:53:01;14.60;99.90
3466;DHT22;1747;48.884;9.160;2023-05-07T01:55:30;14.60;99.90
3466;DHT22;1747;48.884;9.160;2023-05-07T01:57:56;14.60;99.90
3466;DHT22;1747;48.884;9.160;2023-05-07T02:00:24;14.50;99.90
3466;DHT22;1747;48.884;9.160;2023-05-07T02:02:50;14.50;99.90
3466;DHT22;1747;48.884;9.160;2023-05-07T02:05:18;14.50;99.90
3466;DHT22;1747;48.884;9.160;2023-05-07T02:07:45;14.50;99.90
3466;DHT22;1747;48.884;9.160;2023-05-07T02:10:11;14.50;99.90
3466;DHT22;1747;48.884;9.160;2023-05-07T02:12:40;14.50;99.90
3466;DHT22;1747;48.884;9.160;2023-05-07T02:15:08;14.60;99.90
3466;DHT22;1747;48.884;9.160;2023-05-07T02:17:38;14.60;99.90
3466;DHT22;1747;48.884;9.160;2023-05-07T02:20:06;14.60;99.90
3466;DHT22;1747;48.884;9.160;2023-05-07T02:22:38;14.60;99.90
3466;DHT22;1747;48.884;9.160;2023-05-07T02:25:05;14.60;99.90
3466;DHT22;1747;48.884;9.160;2023-05-07T02:27:32;14.60;99.90
3466;DHT22;1747;48.884;9.160;2023-05-07T02:30:00;14.50;99.90
3466;DHT22;1747;48.884;9.160;2023-05-07T02:32:27;14.50;99.90
3466;DHT22;1747;48.884;9.160;2023-05-07T02:34:54;14.40;99.90
3466;DHT22;1747;48.884;9.160;2023-05-07T02:37:21;14.50;99.90
3466;DHT22;1747;48.884;9.160;2023-05-07T02:39:48;14.50;99.90
3466;DHT22;1747;48.884;9.160;2023-05-07T02:42:14;14.40;99.90
3466;DHT22;1747;48.884;9.160;2023-05-07T02:44:41;14.40;99.90
3466;DHT22;1747;48.884;9.160;2023-05-07T02:47:09;14.40;99.90
3466;DHT22;1747;48.884;9.160;2023-05-07T02:49:38;14.40;99.90
3466;DHT22;1747;48.884;9.160;2023-05-07T02:52:05;14.40;99.90
3466;DHT22;1747;48.884;9.160;2023-05-07T02:54:32;14.30;99.90
3466;DHT22;1747;48.884;9.160;2023-05-07T02:56:59;14.20;99.90
3466;DHT22;1747;48.884;9.160;2023-05-07T02:59:26;14.10;99.90
3466;DHT22;1747;48.884;9.160;2023-05-07T03:01:53;14.10;99.90
3466;DHT22;1747;48.884;9.160;2023-05-07T03:04:21;14.00;99.90
3466;DHT22;1747;48.884;9.160;2023-05-07T03:06:48;14.00;99.90
3466;DHT22;1747;48.884;9.160;2023-05-07T03:09:14;14.00;99.90
3466;DHT22;1747;48.884;9.160;2023-05-07T03:11:41;13.90;99.90
3466;DHT22;1747;48.884;9.160;2023-05-07T03:14:08;13.80;99.90
3466;DHT22;1747;48.884;9.160;2023-05-07T03:16:35;13.80;99.90
3466;DHT22;1747;48.884;9.160;2023-05-07T03:19:02;13.80;99.90
3466;DHT22;1747;48.884;9.160;2023-05-07T03:21:30;13.80;99.90
3466;DHT22;1747;48.884;9.160;2023-05-07T03:23:59;13.70;99.90
3466;DHT22;1747;48.884;9.160;2023-05-07T03:26:26;13.80;99.90
3466;DHT22;1747;48.884;9.160;2023-05-07T03:28:52;13.70;99.90
3466;DHT22;1747;48.884;9.160;2023-05-07T03:31:19;13.70;99.90
3466;DHT22;1747;48.884;9.160;2023-05-07T03:33:52;13.70;99.90
3466;DHT22;1747;48.884;9.160;2023-05-07T03:36:19;13.70;99.90
3466;DHT22;1747;48.884;9.160;2023-05-07T03:38:48;13.60;99.90
3466;DHT22;1747;48.884;9.160;2023-05-07T03:41:15;13.60;99.90
3466;DHT22;1747;48.884;9.160;2023-05-07T03:43:42;13.60;99.90
3466;DHT22;1747;48.884;9.160;2023-05-07T03:46:09;13.50;99.90
3466;DHT22;1747;48.884;9.160;2023-05-07T03:48:35;13.40;99.90
3466;DHT22;1747;48.884;9.160;2023-05-07T03:51:02;13.30;99.90
3466;DHT22;1747;48.884;9.160;2023-05-07T03:53:29;13.30;99.90
3466;DHT22;1747;48.884;9.160;2023-05-07T03:55:57;13.20;99.90
3466;DHT22;1747;48.884;9.160;2023-05-07T03:58:24;13.10;99.90
3466;DHT22;1747;48.884;9.160;2023-05-07T04:00:51;13.20;99.90
3466;DHT22;1747;48.884;9.160;2023-05-07T04:03:17;13.20;99.90
3466;DHT22;1747;48.884;9.160;2023-05-07T04:05:44;13.20;99.90
3466;DHT22;1747;48.884;9.160;2023-05-07T04:08:11;13.10;99.90
3466;DHT22;1747;48.884;9.160;2023-05-07T04:10:38;13.00;99.90
3466;DHT22;1747;48.884;9.160;2023-05-07T04:13:06;12.90;99.90
3466;DHT22;1747;48.884;9.160;2023-05-07T04:15:32;12.90;99.90
3466;DHT22;1747;48.884;9.160;2023-05-07T04:17:59;12.90;99.90
3466;DHT22;1747;48.884;9.160;2023-05-07T04:20:26;13.00;99.90
3466;DHT22;1747;48.884;9.160;2023-05-07T04:22:53;13.00;99.90
3466;DHT22;1747;48.884;9.160;2023-05-07T04:25:20;13.10;99.90
3466;DHT22;1747;48.884;9.160;2023-05-07T04:27:47;13.10;99.90
3466;DHT22;1747;48.884;9.160;2023-05-07T04:30:15;13.10;99.90
3466;DHT22;1747;48.884;9.160;2023-05-07T04:32:42;13.10;99.90
3466;DHT22;1747;48.884;9.160;2023-05-07T04:35:10;13.10;99.90
3466;DHT22;1747;48.884;9.160;2023-05-07T04:37:36;13.10;99.90
3466;DHT22;1747;48.884;9.160;2023-05-07T04:40:04;13.00;99.90
3466;DHT22;1747;48.884;9.160;2023-05-07T04:42:31;13.10;99.90
3466;DHT22;1747;48.884;9.160;2023-05-07T04:44:58;13.10;99.90
3466;DHT22;1747;48.884;9.160;2023-05-07T04:47:26;13.20;99.90
3466;DHT22;1747;48.884;9.160;2023-05-07T04:49:53;13.20;99.90
3466;DHT22;1747;48.884;9.160;2023-05-07T04:52:20;13.30;99.90
3466;DHT22;1747;48.884;9.160;2023-05-07T04:54:47;13.30;99.90
3466;DHT22;1747;48.884;9.160;2023-05-07T04:57:13;13.40;99.90
3466;DHT22;1747;48.884;9.160;2023-05-07T04:59:42;13.50;99.90
3466;DHT22;1747;48.884;9.160;2023-05-07T05:02:09;13.60;99.90
3466;DHT22;1747;48.884;9.160;2023-05-07T05:04:38;13.60;99.90
3466;DHT22;1747;48.884;9.160;2023-05-07T05:07:04;13.60;99.90
3466;DHT22;1747;48.884;9.160;2023-05-07T05:09:31;13.60;99.90
3466;DHT22;1747;48.884;9.160;2023-05-07T05:11:59;13.70;99.90
3466;DHT22;1747;48.884;9.160;2023-05-07T05:14:25;13.70;99.90
3466;DHT22;1747;48.884;9.160;2023-05-07T05:16:52;13.80;99.90
3466;DHT22;1747;48.884;9.160;2023-05-07T05:19:19;13.90;99.90
3466;DHT22;1747;48.884;9.160;2023-05-07T05:21:47;13.90;99.90
3466;DHT22;1747;48.884;9.160;2023-05-07T05:24:14;13.90;99.90
3466;DHT22;1747;48.884;9.160;2023-05-07T05:26:41;13.90;99.90
3466;DHT22;1747;48.884;9.160;2023-05-07T05:29:08;13.90;99.90
3466;DHT22;1747;48.884;9.160;2023-05-07T05:31:35;14.00;99.90
3466;DHT22;1747;48.884;9.160;2023-05-07T05:34:02;14.10;99.90
3466;DHT22;1747;48.884;9.160;2023-05-07T05:36:29;14.20;99.90
3466;DHT22;1747;48.884;9.160;2023-05-07T05:38:57;14.30;99.90
3466;DHT22;1747;48.884;9.160;2023-05-07T05:41:24;14.50;99.90
3466;DHT22;1747;48.884;9.160;2023-05-07T05:43:51;14.60;99.90
3466;DHT22;1747;48.884;9.160;2023-05-07T05:46:18;14.80;99.90
3466;DHT22;1747;48.884;9.160;2023-05-07T05:48:44;15.00;99.90
3466;DHT22;1747;48.884;9.160;2023-05-07T05:51:11;15.10;99.90
3466;DHT22;1747;48.884;9.160;2023-05-07T05:53:38;15.10;99.90
3466;DHT22;1747;48.884;9.160;2023-05-07T05:56:07;15.20;99.90
3466;DHT22;1747;48.884;9.160;2023-05-07T05:58:34;15.20;99.90
3466;DHT22;1747;48.884;9.160;2023-05-07T06:01:01;15.30;99.90
3466;DHT22;1747;48.884;9.160;2023-05-07T06:03:29;15.40;99.90
3466;DHT22;1747;48.884;9.160;2023-05-07T06:05:55;15.50;99.90
3466;DHT22;1747;48.884;9.160;2023-05-07T06:08:22;15.70;99.90
3466;DHT22;1747;48.884;9.160;2023-05-07T06:10:49;16.00;99.90
3466;DHT22;1747;48.884;9.160;2023-05-07T06:13:18;16.00;99.90
3466;DHT22;1747;48.884;9.160;2023-05-07T06:15:45;16.10;99.90
3466;DHT22;1747;48.884;9.160;2023-05-07T06:18:12;16.20;99.90
3466;DHT22;1747;48.884;9.160;2023-05-07T06:20:39;16.30;99.90
3466;DHT22;1747;48.884;9.160;2023-05-07T06:23:06;16.30;99.90
3466;DHT22;1747;48.884;9.160;2023-05-07T06:25:33;16.40;99.90
3466;DHT22;1747;48.884;9.160;2023-05-07T06:28:00;16.60;99.90
3466;DHT22;1747;48.884;9.160;2023-05-07T06:30:28;16.70;99.90
3466;DHT22;1747;48.884;9.160;2023-05-07T06:32:55;16.80;99.90
3466;DHT22;1747;48.884;9.160;2023-05-07T06:35:25;16.80;99.90
3466;DHT22;1747;48.884;9.160;2023-05-07T06:37:55;16.90;99.90
3466;DHT22;1747;48.884;9.160;2023-05-07T06:40:27;16.90;99.90
3466;DHT22;1747;48.884;9.160;2023-05-07T06:42:54;17.00;99.90
3466;DHT22;1747;48.884;9.160;2023-05-07T06:45:21;17.00;99.90
3466;DHT22;1747;48.884;9.160;2023-05-07T06:47:49;17.00;99.90
3466;DHT22;1747;48.884;9.160;2023-05-07T06:50:16;17.10;99.90
3466;DHT22;1747;48.884;9.160;2023-05-07T06:52:43;17.10;99.90
3466;DHT22;1747;48.884;9.160;2023-05-07T06:55:10;17.20;99.90
3466;DHT22;1747;48.884;9.160;2023-05-07T06:57:37;17.30;99.90
3466;DHT22;1747;48.884;9.160;2023-05-07T07:00:05;17.40;99.90
3466;DHT22;1747;48.884;9.160;2023-05-07T07:02:34;17.60;99.90
3466;DHT22;1747;48.884;9.160;2023-05-07T07:05:02;17.70;99.90
3466;DHT22;1747;48.884;9.160;2023-05-07T07:07:29;17.60;99.90
3466;DHT22;1747;48.884;9.160;2023-05-07T07:09:56;17.70;99.90
3466;DHT22;1747;48.884;9.160;2023-05-07T07:12:23;17.90;99.90
3466;DHT22;1747;48.884;9.160;2023-05-07T07:14:51;17.90;99.90
3466;DHT22;1747;48.884;9.160;2023-05-07T07:17:21;18.10;99.90
3466;DHT22;1747;48.884;9.160;2023-05-07T07:19:47;18.10;99.90
3466;DHT22;1747;48.884;9.160;2023-05-07T07:22:16;18.10;99.90
3466;DHT22;1747;48.884;9.160;2023-05-07T07:24:43;18.30;99.90
3466;DHT22;1747;48.884;9.160;2023-05-07T07:27:10;18.40;99.90
3466;DHT22;1747;48.884;9.160;2023-05-07T07:29:36;18.50;99.90
3466;DHT22;1747;48.884;9.160;2023-05-07T07:32:04;18.60;99.90
3466;DHT22;1747;48.884;9.160;2023-05-07T07:34:30;18.70;99.90
3466;DHT22;1747;48.884;9.160;2023-05-07T07:36:57;18.80;99.90
3466;DHT22;1747;48.884;9.160;2023-05-07T07:39:25;18.80;99.90
3466;DHT22;1747;48.884;9.160;2023-05-07T07:41:52;19.00;99.90
3466;DHT22;1747;48.884;9.160;2023-05-07T07:44:19;19.10;99.90
3466;DHT22;1747;48.884;9.160;2023-05-07T07:46:46;19.00;99.90
3466;DHT22;1747;48.884;9.160;2023-05-07T07:49:12;19.10;99.90
3466;DHT22;1747;48.884;9.160;2023-05-07T07:51:39;19.30;99.90
3466;DHT22;1747;48.884;9.160;2023-05-07T07:54:06;19.50;99.90
3466;DHT22;1747;48.884;9.160;2023-05-07T07:56:34;19.60;99.90
3466;DHT22;1747;48.884;9.160;2023-05-07T07:59:02;19.60;99.90
3466;DHT22;1747;48.884;9.160;2023-05-07T08:01:30;19.70;99.90
3466;DHT22;1747;48.884;9.160;2023-05-07T08:03:57;19.80;99.90
3466;DHT22;1747;48.884;9.160;2023-05-07T08:06:24;19.80;99.90
3466;DHT22;1747;48.884;9.160;2023-05-07T08:08:52;19.80;99.90
3466;DHT22;1747;48.884;9.160;2023-05-07T08:11:19;19.90;99.90
3466;DHT22;1747;48.884;9.160;2023-05-07T08:13:50;19.90;99.90
3466;DHT22;1747;48.884;9.160;2023-05-07T08:16:17;20.00;99.90
3466;DHT22;1747;48.884;9.160;2023-05-07T08:18:44;20.10;99.90
3466;DHT22;1747;48.884;9.160;2023-05-07T08:21:11;20.20;99.90
3466;DHT22;1747;48.884;9.160;2023-05-07T08:23:38;20.30;99.90
3466;DHT22;1747;48.884;9.160;2023-05-07T08:26:05;20.40;99.90
3466;DHT22;1747;48.884;9.160;2023-05-07T08:28:32;20.40;99.90
3466;DHT22;1747;48.884;9.160;2023-05-07T08:31:00;20.40;99.90
3466;DHT22;1747;48.884;9.160;2023-05-07T08:33:27;20.50;99.90
3466;DHT22;1747;48.884;9.160;2023-05-07T08:35:54;20.60;99.90
3466;DHT22;1747;48.884;9.160;2023-05-07T08:38:20;20.70;99.90
3466;DHT22;1747;48.884;9.160;2023-05-07T08:40:47;20.70;99.90
3466;DHT22;1747;48.884;9.160;2023-05-07T08:43:14;20.80;99.90
3466;DHT22;1747;48.884;9.160;2023-05-07T08:45:41;20.90;99.90
3466;DHT22;1747;48.884;9.160;2023-05-07T08:48:15;21.00;99.90
3466;DHT22;1747;48.884;9.160;2023-05-07T08:50:42;21.10;99.90
3466;DHT22;1747;48.884;9.160;2023-05-07T08:53:09;21.20;99.90
3466;DHT22;1747;48.884;9.160;2023-05-07T08:55:35;21.20;99.90
3466;DHT22;1747;48.884;9.160;2023-05-07T08:58:03;21.40;99.90
3466;DHT22;1747;48.884;9.160;2023-05-07T09:00:30;21.80;99.90
3466;DHT22;1747;48.884;9.160;2023-05-07T09:02:56;21.90;99.90
3466;DHT22;1747;48.884;9.160;2023-05-07T09:05:25;22.10;99.90
3466;DHT22;1747;48.884;9.160;2023-05-07T09:07:51;22.20;99.90
3466;DHT22;1747;48.884;9.160;2023-05-07T09:10:19;22.30;99.90
3466;DHT22;1747;48.884;9.160;2023-05-07T09:12:47;22.50;99.90
3466;DHT22;1747;48.884;9.160;2023-05-07T09:15:14;22.60;99.90
3466;DHT22;1747;48.884;9.160;2023-05-07T09:17:41;22.60;99.90
3466;DHT22;1747;48.884;9.160;2023-05-07T09:20:08;22.40;99.90
3466;DHT22;1747;48.884;9.160;2023-05-07T09:22:38;22.40;99.90
3466;DHT22;1747;48.884;9.160;2023-05-07T09:25:06;22.60;99.90
3466;DHT22;1747;48.884;9.160;2023-05-07T09:27:33;22.80;99.90
3466;DHT22;1747;48.884;9.160;2023-05-07T09:30:03;23.00;99.90
3466;DHT22;1747;48.884;9.160;2023-05-07T09:32:34;22.90;99.90
3466;DHT22;1747;48.884;9.160;2023-05-07T09:35:01;23.10;99.90
3466;DHT22;1747;48.884;9.160;2023-05-07T09:37:31;23.30;99.90
3466;DHT22;1747;48.884;9.160;2023-05-07T09:39:59;23.40;99.90
3466;DHT22;1747;48.884;9.160;2023-05-07T09:42:27;23.40;99.90
3466;DHT22;1747;48.884;9.160;2023-05-07T09:44:54;23.50;99.90
3466;DHT22;1747;48.884;9.160;2023-05-07T09:47:24;23.60;99.90
3466;DHT22;1747;48.884;9.160;2023-05-07T09:49:56;23.70;99.90
3466;DHT22;1747;48.884;9.160;2023-05-07T09:52:24;23.80;99.90
3466;DHT22;1747;48.884;9.160;2023-05-07T09:54:55;23.90;99.90
3466;DHT22;1747;48.884;9.160;2023-05-07T09:57:26;23.90;99.90
3466;DHT22;1747;48.884;9.160;2023-05-07T09:59:54;24.00;99.90
3466;DHT22;1747;48.884;9.160;2023-05-07T10:02:23;24.00;99.90
3466;DHT22;1747;48.884;9.160;2023-05-07T10:04:52;24.00;99.90
3466;DHT22;1747;48.884;9.160;2023-05-07T10:07:21;24.10;99.90
3466;DHT22;1747;48.884;9.160;2023-05-07T10:09:49;24.20;99.90
3466;DHT22;1747;48.884;9.160;2023-05-07T10:12:16;24.20;99.90
3466;DHT22;1747;48.884;9.160;2023-05-07T10:14:45;24.30;99.90
3466;DHT22;1747;48.884;9.160;2023-05-07T10:17:13;24.40;99.90
3466;DHT22;1747;48.884;9.160;2023-05-07T10:19:44;24.60;99.90
3466;DHT22;1747;48.884;9.160;2023-05-07T10:22:11;24.70;99.90
3466;DHT22;1747;48.884;9.160;2023-05-07T10:24:43;24.80;99.90
3466;DHT22;1747;48.884;9.160;2023-05-07T10:27:12;24.90;99.90
3466;DHT22;1747;48.884;9.160;2023-05-07T10:29:49;25.10;99.90
3466;DHT22;1747;48.884;9.160;2023-05-07T10:32:33;25.20;99.90
3466;DHT22;1747;48.884;9.160;2023-05-07T10:35:04;25.30;99.90
3466;DHT22;1747;48.884;9.160;2023-05-07T10:37:34;25.30;99.90
3466;DHT22;1747;48.884;9.160;2023-05-07T10:40:01;25.40;99.90
3466;DHT22;1747;48.884;9.160;2023-05-07T10:42:29;25.40;99.90
3466;DHT22;1747;48.884;9.160;2023-05-07T10:44:57;25.30;99.60
3466;DHT22;1747;48.884;9.160;2023-05-07T10:47:24;25.40;99.90
3466;DHT22;1747;48.884;9.160;2023-05-07T10:50:21;25.40;99.90
3466;DHT22;1747;48.884;9.160;2023-05-07T10:53:22;25.40;99.90
3466;DHT22;1747;48.884;9.160;2023-05-07T10:56:24;25.50;99.90
3466;DHT22;1747;48.884;9.160;2023-05-07T10:58:52;25.50;99.80
3466;DHT22;1747;48.884;9.160;2023-05-07T11:01:52;25.60;99.70
3466;DHT22;1747;48.884;9.160;2023-05-07T11:04:19;25.50;99.90
3466;DHT22;1747;48.884;9.160;2023-05-07T11:07:27;25.40;99.90
3466;DHT22;1747;48.884;9.160;2023-05-07T11:10:04;25.30;99.90
3466;DHT22;1747;48.884;9.160;2023-05-07T11:12:53;25.30;99.20
3466;DHT22;1747;48.884;9.160;2023-05-07T11:15:40;25.20;99.40
3466;DHT22;1747;48.884;9.160;2023-05-07T11:18:11;25.10;99.00
3466;DHT22;1747;48.884;9.160;2023-05-07T11:20:52;25.10;99.80
3466;DHT22;1747;48.884;9.160;2023-05-07T11:23:57;25.10;99.30
3466;DHT22;1747;48.884;9.160;2023-05-07T11:26:28;25.00;98.40
3466;DHT22;1747;48.884;9.160;2023-05-07T11:29:16;25.10;98.40
3466;DHT22;1747;48.884;9.160;2023-05-07T11:31:43;25.10;98.70
3466;DHT22;1747;48.884;9.160;2023-05-07T11:34:21;25.10;98.90
3466;DHT22;1747;48.884;9.160;2023-05-07T11:36:48;25.10;98.50
3466;DHT22;1747;48.884;9.160;2023-05-07T11:39:26;25.10;98.30
3466;DHT22;1747;48.884;9.160;2023-05-07T11:41:53;25.10;98.20
3466;DHT22;1747;48.884;9.160;2023-05-07T11:44:20;25.10;98.40
3466;DHT22;1747;48.884;9.160;2023-05-07T11:46:47;25.10;98.10
3466;DHT22;1747;48.884;9.160;2023-05-07T11:49:16;25.10;98.30
3466;DHT22;1747;48.884;9.160;2023-05-07T11:51:43;25.10;98.00
3466;DHT22;1747;48.884;9.160;2023-05-07T11:54:15;25.10;98.10
3466;DHT22;1747;48.884;9.160;2023-05-07T11:56:44;25.00;97.50
3466;DHT22;1747;48.884;9.160;2023-05-07T11:59:11;25.00;97.80
3466;DHT22;1747;48.884;9.160;2023-05-07T12:01:38;25.10;98.50
3466;DHT22;1747;48.884;9.160;2023-05-07T12:04:05;25.10;99.40
3466;DHT22;1747;48.884;9.160;2023-05-07T12:06:36;25.10;99.90
3466;DHT22;1747;48.884;9.160;2023-05-07T12:09:04;25.20;97.80
3466;DHT22;1747;48.884;9.160;2023-05-07T12:11:32;25.20;97.80
3466;DHT22;1747;48.884;9.160;2023-05-07T12:13:59;25.20;96.60
3466;DHT22;1747;48.884;9.160;2023-05-07T12:16:26;25.20;96.80
3466;DHT22;1747;48.884;9.160;2023-05-07T12:18:56;25.30;96.60
3466;DHT22;1747;48.884;9.160;2023-05-07T12:21:24;25.30;96.60
3466;DHT22;1747;48.884;9.160;2023-05-07T12:23:53;25.20;97.20
3466;DHT22;1747;48.884;9.160;2023-05-07T12:26:20;25.20;97.40
3466;DHT22;1747;48.884;9.160;2023-05-07T12:28:47;25.10;99.30
3466;DHT22;1747;48.884;9.160;2023-05-07T12:31:14;24.90;99.90
3466;DHT22;1747;48.884;9.160;2023-05-07T12:33:42;24.90;99.10
3466;DHT22;1747;48.884;9.160;2023-05-07T12:36:11;24.80;99.90
3466;DHT22;1747;48.884;9.160;2023-05-07T12:38:39;24.80;99.30
3466;DHT22;1747;48.884;9.160;2023-05-07T12:41:09;24.80;98.00
3466;DHT22;1747;48.884;9.160;2023-05-07T12:43:36;24.80;98.60
3466;DHT22;1747;48.884;9.160;2023-05-07T12:46:05;24.80;99.80
3466;DHT22;1747;48.884;9.160;2023-05-07T12:48:32;24.80;99.90
3466;DHT22;1747;48.884;9.160;2023-05-07T12:51:00;24.70;99.90
3466;DHT22;1747;48.884;9.160;2023-05-07T12:53:29;24.70;99.90
3466;DHT22;1747;48.884;9.160;2023-05-07T12:55:58;24.60;99.90
3466;DHT22;1747;48.884;9.160;2023-05-07T12:58:28;24.50;99.50
3466;DHT22;1747;48.884;9.160;2023-05-07T13:00:56;24.70;99.90
3466;DHT22;1747;48.884;9.160;2023-05-07T13:03:25;24.50;99.90
3466;DHT22;1747;48.884;9.160;2023-05-07T13:05:53;24.20;99.90
3466;DHT22;1747;48.884;9.160;2023-05-07T13:08:27;23.70;99.90
3466;DHT22;1747;48.884;9.160;2023-05-07T13:10:55;23.10;99.90
3466;DHT22;1747;48.884;9.160;2023-05-07T13:13:21;22.90;99.90
3466;DHT22;1747;48.884;9.160;2023-05-07T13:15:50;22.70;99.90
3466;DHT22;1747;48.884;9.160;2023-05-07T13:18:17;22.70;99.90
3466;DHT22;1747;48.884;9.160;2023-05-07T13:20:44;22.60;99.90
3466;DHT22;1747;48.884;9.160;2023-05-07T13:23:11;22.20;99.90
3466;DHT22;1747;48.884;9.160;2023-05-07T13:25:37;21.80;99.90
3466;DHT22;1747;48.884;9.160;2023-05-07T13:28:04;21.50;99.90
3466;DHT22;1747;48.884;9.160;2023-05-07T13:30:31;21.30;99.90
3466;DHT22;1747;48.884;9.160;2023-05-07T13:32:59;21.10;99.90
3466;DHT22;1747;48.884;9.160;2023-05-07T13:35:26;20.90;99.90
3466;DHT22;1747;48.884;9.160;2023-05-07T13:37:53;20.80;99.90
3466;DHT22;1747;48.884;9.160;2023-05-07T13:40:21;20.70;99.90
3466;DHT22;1747;48.884;9.160;2023-05-07T13:42:48;20.10;99.90
3466;DHT22;1747;48.884;9.160;2023-05-07T13:45:16;20.10;99.90
3466;DHT22;1747;48.884;9.160;2023-05-07T13:47:42;19.90;99.90
3466;DHT22;1747;48.884;9.160;2023-05-07T13:50:11;19.90;99.90
3466;DHT22;1747;48.884;9.160;2023-05-07T13:52:40;19.70;99.90
3466;DHT22;1747;48.884;9.160;2023-05-07T13:55:08;19.70;99.90
3466;DHT22;1747;48.884;9.160;2023-05-07T13:57:35;19.60;99.90
3466;DHT22;1747;48.884;9.160;2023-05-07T14:00:03;19.60;99.90
3466;DHT22;1747;48.884;9.160;2023-05-07T14:02:30;19.60;99.90
3466;DHT22;1747;48.884;9.160;2023-05-07T14:04:57;19.60;99.90
3466;DHT22;1747;48.884;9.160;2023-05-07T14:07:25;19.60;99.90
3466;DHT22;1747;48.884;9.160;2023-05-07T14:09:52;19.70;99.90
3466;DHT22;1747;48.884;9.160;2023-05-07T14:12:19;19.70;99.90
3466;DHT22;1747;48.884;9.160;2023-05-07T14:14:45;19.80;99.90
3466;DHT22;1747;48.884;9.160;2023-05-07T14:17:12;19.80;99.90
3466;DHT22;1747;48.884;9.160;2023-05-07T14:19:39;20.00;99.90
3466;DHT22;1747;48.884;9.160;2023-05-07T14:22:06;20.30;99.90
3466;DHT22;1747;48.884;9.160;2023-05-07T14:24:34;20.40;99.90
3466;DHT22;1747;48.884;9.160;2023-05-07T14:27:00;20.30;99.90
3466;DHT22;1747;48.884;9.160;2023-05-07T14:29:27;20.30;99.90
3466;DHT22;1747;48.884;9.160;2023-05-07T14:31:54;20.10;99.90
3466;DHT22;1747;48.884;9.160;2023-05-07T14:34:21;20.00;99.90
3466;DHT22;1747;48.884;9.160;2023-05-07T14:36:48;19.90;99.90
3466;DHT22;1747;48.884;9.160;2023-05-07T14:39:14;19.70;99.90
3466;DHT22;1747;48.884;9.160;2023-05-07T14:41:43;19.60;99.90
3466;DHT22;1747;48.884;9.160;2023-05-07T14:44:09;19.50;99.90
3466;DHT22;1747;48.884;9.160;2023-05-07T14:46:36;19.30;99.90
3466;DHT22;1747;48.884;9.160;2023-05-07T14:49:03;19.20;99.90
3466;DHT22;1747;48.884;9.160;2023-05-07T14:51:30;19.10;99.90
3466;DHT22;1747;48.884;9.160;2023-05-07T14:53:59;19.00;99.90
3466;DHT22;1747;48.884;9.160;2023-05-07T14:56:27;18.90;99.90
3466;DHT22;1747;48.884;9.160;2023-05-07T14:58:55;18.90;99.90
3466;DHT22;1747;48.884;9.160;2023-05-07T15:01:22;18.90;99.90
3466;DHT22;1747;48.884;9.160;2023-05-07T15:03:49;19.00;99.90
3466;DHT22;1747;48.884;9.160;2023-05-07T15:06:15;19.00;99.90
3466;DHT22;1747;48.884;9.160;2023-05-07T15:08:42;19.10;99.90
3466;DHT22;1747;48.884;9.160;2023-05-07T15:11:09;19.10;99.90
3466;DHT22;1747;48.884;9.160;2023-05-07T15:13:36;19.20;99.90
3466;DHT22;1747;48.884;9.160;2023-05-07T15:16:04;19.30;99.90
3466;DHT22;1747;48.884;9.160;2023-05-07T15:18:31;19.40;99.90
3466;DHT22;1747;48.884;9.160;2023-05-07T15:20:58;19.50;99.90
3466;DHT22;1747;48.884;9.160;2023-05-07T15:23:24;19.60;99.90
3466;DHT22;1747;48.884;9.160;2023-05-07T15:25:51;19.60;99.90
3466;DHT22;1747;48.884;9.160;2023-05-07T15:28:18;19.70;99.90
3466;DHT22;1747;48.884;9.160;2023-05-07T15:30:45;19.80;99.90
3466;DHT22;1747;48.884;9.160;2023-05-07T15:33:13;19.80;99.90
3466;DHT22;1747;48.884;9.160;2023-05-07T15:35:40;19.90;99.90
3466;DHT22;1747;48.884;9.160;2023-05-07T15:38:07;19.90;99.90
3466;DHT22;1747;48.884;9.160;2023-05-07T15:40:34;19.90;99.90
3466;DHT22;1747;48.884;9.160;2023-05-07T15:43:03;19.90;99.90
3466;DHT22;1747;48.884;9.160;2023-05-07T15:45:30;19.90;99.90
3466;DHT22;1747;48.884;9.160;2023-05-07T15:47:56;19.80;99.90
3466;DHT22;1747;48.884;9.160;2023-05-07T15:50:25;19.70;99.90
3466;DHT22;1747;48.884;9.160;2023-05-07T15:52:52;19.70;99.90
3466;DHT22;1747;48.884;9.160;2023-05-07T15:55:19;19.60;99.90
3466;DHT22;1747;48.884;9.160;2023-05-07T15:57:46;19.60;99.90
3466;DHT22;1747;48.884;9.160;2023-05-07T16:00:13;19.60;99.90
3466;DHT22;1747;48.884;9.160;2023-05-07T16:02:42;19.50;99.90
3466;DHT22;1747;48.884;9.160;2023-05-07T16:05:09;19.50;99.90
3466;DHT22;1747;48.884;9.160;2023-05-07T16:07:38;19.50;99.90
3466;DHT22;1747;48.884;9.160;2023-05-07T16:10:06;19.50;99.90